Powell River, Canada
Current Conditions -  °F | °C
As of 11:00 AM on Saturday 25 Oct 2014 (Local Time) from CYPW Reporting Station
Light Rain Light Rain  
Wind Chill: 45°   Ceiling: 600
Heat Index: 45°   Visibility: 1.5mi
Dew Point: 45°   Wind: 2mph
Humidity: 100%   Direction: NA
Pressure: 29.46"   Gusts: NA
Location:  49.84°N, 124.52°W
Report Text: CYPW 251800Z VRB02KT 1 1/2SM -RA BR FEW002 BKN006 OVC025 07/07 A2946 RMK SF1SF6SC2 SF TR VIS W 4 SLP979
Loading
Personal Weather Stations






























Interactive Weather Map
Tropical Storm Tracking
New forecast layout! Learn more

10-Day Weather Forecast

Advertisements
Track Severe Weather on mobile